createdAt,value
2023-04-11T00:00:18.189Z,39.23
2023-04-11T00:03:13.784Z,39.88
2023-04-11T00:05:59.904Z,39.62
2023-04-11T00:08:45.847Z,38.95
2023-04-11T00:11:31.835Z,38.96
2023-04-11T00:14:17.720Z,39.50
2023-04-11T00:17:03.500Z,40.54
2023-04-11T00:19:49.349Z,40.13
2023-04-11T00:22:35.150Z,40.93
2023-04-11T00:25:21.155Z,41.01
2023-04-11T00:28:06.989Z,41.65
2023-04-11T00:30:52.947Z,41.68
2023-04-11T00:33:40.545Z,42.17
2023-04-11T00:36:26.840Z,43.50
2023-04-11T00:39:13.072Z,43.88
2023-04-11T00:41:59.025Z,43.48
2023-04-11T00:44:44.817Z,44.34
2023-04-11T00:47:30.710Z,45.97
2023-04-11T00:50:16.495Z,45.81
2023-04-11T00:53:02.405Z,45.61
2023-04-11T00:55:48.365Z,45.32
2023-04-11T00:58:34.162Z,45.10
2023-04-11T01:01:20.123Z,45.20
2023-04-11T01:04:06.328Z,45.00
2023-04-11T01:06:52.265Z,44.49
2023-04-11T01:09:38.130Z,45.63
2023-04-11T01:12:24.027Z,46.20
2023-04-11T01:15:09.907Z,46.83
2023-04-11T01:17:55.801Z,47.58
2023-04-11T01:20:41.654Z,47.63
2023-04-11T01:23:27.773Z,47.38
2023-04-11T01:26:13.862Z,47.79
2023-04-11T01:28:59.719Z,48.32
2023-04-11T01:31:45.510Z,47.98
2023-04-11T01:34:31.318Z,48.60
2023-04-11T01:37:17.276Z,49.74
2023-04-11T01:40:03.153Z,50.11
2023-04-11T01:42:48.956Z,51.09
2023-04-11T01:45:34.801Z,51.22
2023-04-11T01:48:20.702Z,51.08
2023-04-11T01:51:06.987Z,51.57
2023-04-11T01:53:52.874Z,52.11
2023-04-11T01:56:38.728Z,52.10
2023-04-11T01:59:24.812Z,52.02
2023-04-11T02:02:10.944Z,52.05
2023-04-11T02:04:57.191Z,52.25
2023-04-11T02:07:42.989Z,54.13
2023-04-11T02:10:28.794Z,53.90
2023-04-11T02:13:14.600Z,54.32
2023-04-11T02:16:00.637Z,53.39
2023-04-11T02:18:46.445Z,54.46
2023-04-11T02:21:32.296Z,54.81
2023-04-11T02:24:18.242Z,54.23
2023-04-11T02:27:04.040Z,54.79
2023-04-11T02:29:49.896Z,54.87
2023-04-11T02:32:35.755Z,55.14
2023-04-11T02:35:21.790Z,54.25
2023-04-11T02:38:07.591Z,54.11
2023-04-11T02:40:53.447Z,54.64
2023-04-11T02:43:39.493Z,55.31
2023-04-11T02:46:25.440Z,55.07
2023-04-11T02:49:11.335Z,55.43
2023-04-11T02:51:57.227Z,56.18
2023-04-11T02:54:43.059Z,56.75
2023-04-11T02:57:28.895Z,57.62
2023-04-11T03:00:14.807Z,60.05
2023-04-11T03:03:00.800Z,60.97
2023-04-11T03:05:46.860Z,63.97
2023-04-11T03:08:32.711Z,65.65
2023-04-11T03:11:18.676Z,66.85
2023-04-11T03:14:04.504Z,67.78
2023-04-11T03:16:50.448Z,66.34
2023-04-11T03:19:36.382Z,68.06
2023-04-11T03:22:22.237Z,67.51
2023-04-11T03:25:08.132Z,67.73
2023-04-11T03:27:54.195Z,67.81
2023-04-11T03:30:40.014Z,66.86
2023-04-11T03:33:25.955Z,66.64
2023-04-11T03:36:11.742Z,66.66
2023-04-11T03:38:57.948Z,66.42
2023-04-11T03:41:44.283Z,67.33
2023-04-11T03:44:30.267Z,66.37
2023-04-11T03:47:16.105Z,65.91
2023-04-11T03:50:01.965Z,66.19
2023-04-11T03:52:47.826Z,66.27
2023-04-11T03:55:33.707Z,67.88
2023-04-11T03:58:19.642Z,67.84
2023-04-11T04:01:05.369Z,68.85
2023-04-11T04:03:51.423Z,69.18
2023-04-11T04:06:37.471Z,71.24
2023-04-11T04:09:23.336Z,70.62
2023-04-11T04:12:09.278Z,68.57
2023-04-11T04:14:55.176Z,70.27
2023-04-11T04:17:40.941Z,68.94
2023-04-11T04:20:26.897Z,68.87
2023-04-11T04:23:12.772Z,70.33
2023-04-11T04:25:58.694Z,70.99
2023-04-11T04:28:44.533Z,73.12
2023-04-11T04:31:30.462Z,73.10
2023-04-11T04:34:16.297Z,71.22
2023-04-11T04:37:02.101Z,72.95
2023-04-11T04:39:47.952Z,72.80
2023-04-11T04:42:33.891Z,73.26
2023-04-11T04:45:19.734Z,74.27
2023-04-11T04:48:07.745Z,78.94
2023-04-11T04:50:53.770Z,77.10
2023-04-11T04:53:39.632Z,78.92
2023-04-11T04:56:25.663Z,86.84
2023-04-11T04:59:11.463Z,90.39
2023-04-11T05:01:57.389Z,92.71
2023-04-11T05:04:43.261Z,92.05
2023-04-11T05:07:29.193Z,91.34
2023-04-11T05:10:15.061Z,89.82
2023-04-11T05:13:00.809Z,91.91
2023-04-11T05:15:46.689Z,94.79
2023-04-11T05:18:32.693Z,94.08
2023-04-11T05:21:18.460Z,96.65
2023-04-11T05:24:04.292Z,100.00
2023-04-11T05:26:50.177Z,100.00
2023-04-11T05:29:36.107Z,100.00
2023-04-11T05:32:22.003Z,100.00
2023-04-11T05:35:07.846Z,100.00
2023-04-11T05:37:53.739Z,100.00
2023-04-11T05:40:39.724Z,99.52
2023-04-11T05:43:25.584Z,99.21
2023-04-11T05:46:11.550Z,98.13
2023-04-11T05:48:57.412Z,92.76
2023-04-11T05:51:43.351Z,90.51
2023-04-11T05:54:29.211Z,88.60
2023-04-11T05:57:15.028Z,92.54
2023-04-11T06:00:01.092Z,90.24
2023-04-11T06:02:46.998Z,90.10
2023-04-11T06:05:33.129Z,89.84
2023-04-11T06:08:18.880Z,85.07
2023-04-11T06:11:04.739Z,84.32
2023-04-11T06:13:50.535Z,85.51
2023-04-11T06:16:36.512Z,86.05
2023-04-11T06:19:22.370Z,83.05
2023-04-11T06:22:08.290Z,82.24
2023-04-11T06:24:54.156Z,81.04
2023-04-11T06:27:39.899Z,81.39
2023-04-11T06:30:25.814Z,78.56
2023-04-11T06:33:11.709Z,78.32
2023-04-11T06:35:58.057Z,75.04
2023-04-11T06:38:44.054Z,74.11
2023-04-11T06:41:29.783Z,71.15
2023-04-11T06:44:17.636Z,71.93
2023-04-11T06:47:03.689Z,71.47
2023-04-11T06:49:49.901Z,70.15
2023-04-11T06:52:35.814Z,69.32
2023-04-11T06:55:21.649Z,69.00
2023-04-11T06:58:07.536Z,68.63
2023-04-11T07:00:53.504Z,68.00
2023-04-11T07:03:39.483Z,65.94
2023-04-11T07:06:25.842Z,67.10
2023-04-11T07:09:11.712Z,66.37
2023-04-11T07:11:57.576Z,66.49
2023-04-11T07:14:43.388Z,66.44
2023-04-11T07:17:29.237Z,66.91
2023-04-11T07:20:15.222Z,65.97
2023-04-11T07:23:01.208Z,66.21
2023-04-11T07:25:47.143Z,66.16
2023-04-11T07:28:32.887Z,65.92
2023-04-11T07:31:18.836Z,66.26
2023-04-11T07:34:04.678Z,65.96
2023-04-11T07:36:50.583Z,66.61
2023-04-11T07:39:36.369Z,66.61
2023-04-11T07:42:22.376Z,65.99
2023-04-11T07:45:08.275Z,64.99
2023-04-11T07:47:54.161Z,63.85
2023-04-11T07:50:40.119Z,65.34
2023-04-11T07:53:26.064Z,65.93
2023-04-11T07:56:12.113Z,65.66
2023-04-11T07:58:58.027Z,65.47
2023-04-11T08:01:43.984Z,65.13
2023-04-11T08:04:30.131Z,65.42
2023-04-11T08:07:16.444Z,66.74
2023-04-11T08:10:02.246Z,66.77
2023-04-11T08:12:48.144Z,66.45
2023-04-11T08:15:34.263Z,65.93
2023-04-11T08:18:20.249Z,65.31
2023-04-11T08:21:06.279Z,66.68
2023-04-11T08:23:52.121Z,66.23
2023-04-11T08:26:38.003Z,65.14
2023-04-11T08:29:24.041Z,66.32
2023-04-11T08:32:09.882Z,66.43
2023-04-11T08:34:55.750Z,66.60
2023-04-11T08:37:41.648Z,65.20
2023-04-11T08:40:27.486Z,64.97
2023-04-11T08:43:13.517Z,66.14
2023-04-11T08:45:59.373Z,65.69
2023-04-11T08:48:45.281Z,66.65
2023-04-11T08:51:31.223Z,66.86
2023-04-11T08:54:16.969Z,66.55
2023-04-11T08:57:02.965Z,66.07
2023-04-11T08:59:48.767Z,66.36
2023-04-11T09:02:34.986Z,68.58
2023-04-11T09:05:21.236Z,67.33
2023-04-11T09:08:06.989Z,64.70
2023-04-11T09:10:52.865Z,64.87
2023-04-11T09:13:38.727Z,66.37
2023-04-11T09:16:24.628Z,65.71
2023-04-11T09:19:10.512Z,64.87
2023-04-11T09:21:56.715Z,65.88
2023-04-11T09:24:42.713Z,64.67
2023-04-11T09:27:28.673Z,63.73
2023-04-11T09:30:14.455Z,63.32
2023-04-11T09:33:00.498Z,63.34
2023-04-11T09:35:46.424Z,62.82
2023-04-11T09:38:32.347Z,62.94
2023-04-11T09:41:18.228Z,62.99
2023-04-11T09:44:04.097Z,63.37
2023-04-11T09:46:51.638Z,63.70
2023-04-11T09:49:38.191Z,63.01
2023-04-11T09:52:23.985Z,61.74
2023-04-11T09:55:09.888Z,61.98
2023-04-11T09:57:55.747Z,62.36
2023-04-11T10:00:41.653Z,64.97
2023-04-11T10:03:27.526Z,67.21
2023-04-11T10:06:13.288Z,70.87
2023-04-11T10:08:59.179Z,66.45
2023-04-11T10:11:45.120Z,73.48
2023-04-11T10:14:30.894Z,75.23
2023-04-11T10:17:20.599Z,70.39
2023-04-11T10:20:08.465Z,71.61
2023-04-11T10:22:54.368Z,78.48
2023-04-11T10:25:40.278Z,73.23
2023-04-11T10:28:26.416Z,71.00
2023-04-11T10:31:12.313Z,68.32
2023-04-11T10:33:58.389Z,63.26
2023-04-11T10:36:44.735Z,64.14
2023-04-11T10:39:30.700Z,67.45
2023-04-11T10:42:16.815Z,70.09
2023-04-11T10:45:02.824Z,67.52
2023-04-11T10:47:48.834Z,66.03
2023-04-11T10:50:34.631Z,65.42
2023-04-11T10:53:20.492Z,63.19
2023-04-11T10:56:06.353Z,62.82
2023-04-11T10:58:54.290Z,62.13
2023-04-11T11:04:28.718Z,62.80
2023-04-11T11:07:14.920Z,63.61
2023-04-11T11:10:00.884Z,63.37
2023-04-11T11:12:46.861Z,65.24
2023-04-11T11:15:32.834Z,64.10
2023-04-11T11:18:18.742Z,62.82
2023-04-11T11:21:05.730Z,64.71
2023-04-11T11:23:52.103Z,62.69
2023-04-11T11:26:37.811Z,64.11
2023-04-11T11:29:23.655Z,64.44
2023-04-11T11:32:09.477Z,64.21
2023-04-11T11:34:55.583Z,62.47
2023-04-11T11:37:41.879Z,64.45
2023-04-11T11:40:27.787Z,63.92
2023-04-11T11:43:13.801Z,62.00
2023-04-11T11:45:59.819Z,61.20
2023-04-11T11:48:45.755Z,61.39
2023-04-11T11:51:31.709Z,62.01
2023-04-11T11:54:17.554Z,64.40
2023-04-11T11:57:03.501Z,64.05
2023-04-11T11:59:49.456Z,63.51
2023-04-11T12:02:35.561Z,62.94
2023-04-11T12:05:21.846Z,62.91
2023-04-11T12:08:07.890Z,64.66
2023-04-11T12:10:53.908Z,63.18
2023-04-11T12:13:39.899Z,61.78
2023-04-11T12:16:25.659Z,60.45
2023-04-11T12:19:11.913Z,62.82
2023-04-11T12:21:57.801Z,60.51
2023-04-11T12:24:43.591Z,62.01
2023-04-11T12:27:29.530Z,64.88
2023-04-11T12:30:15.601Z,65.19
2023-04-11T12:33:01.726Z,65.38
2023-04-11T12:35:47.647Z,65.83
2023-04-11T12:38:33.654Z,67.55
2023-04-11T12:41:32.212Z,67.50
2023-04-11T12:44:18.577Z,69.04
2023-04-11T12:47:04.546Z,67.88
2023-04-11T12:49:50.519Z,67.85
2023-04-11T12:52:36.344Z,70.78
2023-04-11T12:55:22.259Z,71.06
2023-04-11T12:58:08.237Z,71.93
2023-04-11T13:00:54.024Z,74.68
2023-04-11T13:03:39.935Z,74.94
2023-04-11T13:06:26.150Z,73.05
2023-04-11T13:09:12.090Z,70.90
2023-04-11T13:11:58.076Z,72.08
2023-04-11T13:14:43.739Z,69.54
2023-04-11T13:17:29.743Z,67.64
2023-04-11T13:20:15.772Z,65.83
2023-04-11T13:23:01.525Z,65.86
2023-04-11T13:25:47.436Z,62.13
2023-04-11T13:28:33.260Z,63.56
2023-04-11T13:31:19.134Z,64.66
2023-04-11T13:34:05.247Z,62.78
2023-04-11T13:36:50.969Z,65.21
2023-04-11T13:39:36.869Z,71.54
2023-04-11T13:42:22.766Z,81.68
2023-04-11T13:45:08.586Z,93.75
2023-04-11T13:47:54.612Z,95.19
2023-04-11T13:50:40.447Z,100.00
2023-04-11T13:53:26.418Z,100.00
2023-04-11T13:56:12.338Z,100.00
2023-04-11T13:58:58.360Z,94.52
2023-04-11T14:01:44.711Z,98.89
2023-04-11T14:04:30.696Z,95.65
2023-04-11T14:07:16.653Z,91.65
2023-04-11T14:10:02.453Z,93.93
2023-04-11T14:12:48.416Z,88.97
2023-04-11T14:15:34.403Z,84.88
2023-04-11T14:18:20.397Z,85.62
2023-04-11T14:21:06.075Z,83.11
2023-04-11T14:23:52.001Z,84.81
2023-04-11T14:26:37.871Z,86.33
2023-04-11T14:29:23.761Z,83.00
2023-04-11T14:32:09.662Z,81.81
2023-04-11T14:34:55.668Z,78.41
2023-04-11T14:37:41.617Z,76.28
2023-04-11T14:40:27.491Z,81.56
2023-04-11T14:43:13.335Z,79.30
2023-04-11T14:45:59.254Z,78.88
2023-04-11T14:48:45.127Z,73.67
2023-04-11T14:51:31.064Z,70.71
2023-04-11T14:54:16.969Z,69.38
2023-04-11T14:57:02.861Z,69.37
2023-04-11T14:59:48.650Z,70.17
2023-04-11T15:02:34.653Z,68.76
2023-04-11T15:05:20.809Z,69.64
2023-04-11T15:08:06.672Z,68.07
2023-04-11T15:10:52.512Z,66.55
2023-04-11T15:13:38.320Z,68.82
2023-04-11T15:16:24.327Z,77.16
2023-04-11T15:19:10.316Z,77.25
2023-04-11T15:21:56.269Z,70.99
2023-04-11T15:24:42.028Z,68.85
2023-04-11T15:27:27.950Z,68.39
2023-04-11T15:30:13.953Z,66.57
2023-04-11T15:32:59.800Z,64.88
2023-04-11T15:35:45.776Z,63.39
2023-04-11T15:38:31.770Z,62.33
2023-04-11T15:41:17.539Z,61.76
2023-04-11T15:44:03.364Z,60.87
2023-04-11T15:46:49.599Z,59.79
2023-04-11T15:49:35.673Z,62.91
2023-04-11T15:52:21.537Z,60.72
2023-04-11T15:55:07.340Z,60.92
2023-04-11T15:57:53.147Z,59.97
2023-04-11T16:00:39.071Z,59.45
2023-04-11T16:03:25.084Z,58.93
2023-04-11T16:06:11.400Z,58.31
2023-04-11T16:08:57.266Z,57.73
2023-04-11T16:11:43.185Z,56.86
2023-04-11T16:14:29.105Z,57.51
2023-04-11T16:17:14.920Z,58.37
2023-04-11T16:20:00.884Z,56.04
2023-04-11T16:22:46.869Z,55.81
2023-04-11T16:25:32.690Z,59.86
2023-04-11T16:28:18.712Z,61.72
2023-04-11T16:31:04.683Z,61.97
2023-04-11T16:33:50.620Z,62.25
2023-04-11T16:36:36.556Z,65.18
2023-04-11T16:39:22.894Z,62.22
2023-04-11T16:42:08.730Z,63.35
2023-04-11T16:44:54.602Z,60.38
2023-04-11T16:47:40.663Z,63.48
2023-04-11T16:50:26.691Z,62.65
2023-04-11T16:53:12.567Z,60.27
2023-04-11T16:55:58.438Z,65.26
2023-04-11T16:58:44.806Z,69.11
2023-04-11T17:01:30.775Z,64.57
2023-04-11T17:04:16.945Z,62.85
2023-04-11T17:07:03.297Z,61.92
2023-04-11T17:09:49.155Z,61.48
2023-04-11T17:12:35.089Z,60.70
2023-04-11T17:15:20.886Z,58.39
2023-04-11T17:18:06.869Z,55.91
2023-04-11T17:20:52.757Z,56.49
2023-04-11T17:23:42.398Z,52.76
2023-04-11T17:26:29.155Z,55.14
2023-04-11T17:29:15.236Z,54.74
2023-04-11T17:32:01.043Z,55.13
2023-04-11T17:34:47.153Z,55.25
2023-04-11T17:37:33.074Z,54.40
2023-04-11T17:40:18.944Z,53.56
2023-04-11T17:43:04.992Z,53.01
2023-04-11T17:45:50.974Z,52.36
2023-04-11T17:48:36.835Z,51.91
2023-04-11T17:51:22.859Z,51.64
2023-04-11T17:54:08.980Z,52.81
2023-04-11T17:56:54.958Z,52.30
2023-04-11T17:59:40.972Z,51.29
2023-04-11T18:02:26.929Z,52.45
2023-04-11T18:05:20.678Z,52.62
2023-04-11T18:08:10.160Z,52.89
2023-04-11T18:10:55.992Z,52.18
2023-04-11T18:13:41.823Z,52.25
2023-04-11T18:16:27.909Z,52.89
2023-04-11T18:19:14.173Z,53.13
2023-04-11T18:22:00.035Z,53.55
2023-04-11T18:24:46.062Z,53.88
2023-04-11T18:27:31.951Z,54.17
2023-04-11T18:30:17.842Z,54.73
2023-04-11T18:33:03.834Z,53.92
2023-04-11T18:35:49.872Z,53.57
2023-04-11T18:38:35.925Z,54.98
2023-04-11T18:41:21.889Z,55.17
2023-04-11T18:44:09.727Z,54.28
2023-04-11T18:46:57.802Z,54.86
2023-04-11T18:49:46.590Z,54.38
2023-04-11T18:52:32.843Z,54.42
2023-04-11T18:55:18.925Z,54.95
2023-04-11T18:58:07.850Z,54.74
2023-04-11T19:00:55.032Z,53.85
2023-04-11T19:03:41.185Z,54.08
2023-04-11T19:06:27.504Z,53.50
2023-04-11T19:09:13.440Z,53.39
2023-04-11T19:11:59.287Z,53.54
2023-04-11T19:14:45.101Z,52.72
2023-04-11T19:17:31.029Z,52.93
2023-04-11T19:20:16.928Z,52.55
2023-04-11T19:23:02.962Z,53.28
2023-04-11T19:25:48.690Z,53.62
2023-04-11T19:28:34.573Z,53.48
2023-04-11T19:31:20.574Z,53.99
2023-04-11T19:34:06.460Z,54.87
2023-04-11T19:36:52.472Z,55.11
2023-04-11T19:39:38.428Z,55.89
2023-04-11T19:42:24.328Z,55.88
2023-04-11T19:45:10.293Z,55.84
2023-04-11T19:47:56.231Z,54.73
2023-04-11T19:50:42.235Z,56.11
2023-04-11T19:53:28.127Z,56.17
2023-04-11T19:56:13.912Z,57.37
2023-04-11T19:58:59.761Z,58.33
2023-04-11T20:01:47.887Z,59.10
2023-04-11T20:04:33.962Z,57.32
2023-04-11T20:07:19.962Z,57.32
2023-04-11T20:10:05.825Z,57.64
2023-04-11T20:12:51.649Z,57.41
2023-04-11T20:15:37.623Z,57.56
2023-04-11T20:18:23.413Z,58.09
2023-04-11T20:21:09.399Z,56.93
2023-04-11T20:23:55.493Z,57.52
2023-04-11T20:26:42.161Z,56.81
2023-04-11T20:29:29.679Z,55.79
2023-04-11T20:32:16.971Z,56.55
2023-04-11T20:35:02.919Z,56.67
2023-04-11T20:37:48.956Z,56.24
2023-04-11T20:40:34.845Z,55.53
2023-04-11T20:43:20.822Z,56.05
2023-04-11T20:46:06.834Z,56.28
2023-04-11T20:48:52.696Z,55.74
2023-04-11T20:51:39.100Z,55.42
2023-04-11T20:54:25.133Z,55.56
2023-04-11T20:57:11.164Z,56.01
2023-04-11T20:59:57.152Z,57.02
2023-04-11T21:02:43.335Z,58.79
2023-04-11T21:05:29.564Z,58.14
2023-04-11T21:08:15.547Z,58.78
2023-04-11T21:11:01.246Z,58.10
2023-04-11T21:13:47.245Z,57.58
2023-04-11T21:16:33.118Z,57.83
2023-04-11T21:19:18.833Z,57.14
2023-04-11T21:22:04.733Z,57.52
2023-04-11T21:24:50.495Z,57.94
2023-04-11T21:27:36.448Z,57.72
2023-04-11T21:30:22.450Z,58.25
2023-04-11T21:33:08.259Z,58.19
2023-04-11T21:35:54.500Z,59.63
2023-04-11T21:38:40.531Z,58.05
2023-04-11T21:41:26.372Z,59.41
2023-04-11T21:44:12.164Z,58.23
2023-04-11T21:46:58.042Z,58.19
2023-04-11T21:49:43.830Z,57.74
2023-04-11T21:52:29.684Z,57.14
2023-04-11T21:55:15.439Z,56.94
2023-04-11T21:58:03.346Z,56.33
2023-04-11T22:00:49.274Z,55.96
2023-04-11T22:03:35.105Z,56.17
2023-04-11T22:06:21.363Z,55.92
2023-04-11T22:09:07.358Z,55.85
2023-04-11T22:11:53.121Z,55.66
2023-04-11T22:14:39.012Z,55.84
2023-04-11T22:17:24.899Z,56.02
2023-04-11T22:20:11.058Z,55.29
2023-04-11T22:22:57.020Z,56.25
2023-04-11T22:25:42.776Z,56.52
2023-04-11T22:28:28.749Z,56.01
2023-04-11T22:31:14.643Z,56.77
2023-04-11T22:34:00.613Z,56.70
2023-04-11T22:36:46.467Z,56.46
2023-04-11T22:39:32.238Z,56.39
2023-04-11T22:42:19.168Z,57.46
2023-04-11T22:45:05.277Z,58.12
2023-04-11T22:47:51.093Z,57.20
2023-04-11T22:50:37.022Z,56.74
2023-04-11T22:53:22.943Z,55.90
2023-04-11T22:56:08.681Z,55.79
2023-04-11T22:58:54.497Z,54.91
2023-04-11T23:01:40.465Z,55.56
2023-04-11T23:04:26.749Z,55.30
2023-04-11T23:07:12.710Z,55.19
2023-04-11T23:10:00.550Z,55.30
2023-04-11T23:12:46.469Z,55.20
2023-04-11T23:15:32.337Z,54.38
2023-04-11T23:18:18.125Z,54.18
2023-04-11T23:21:03.971Z,54.20
2023-04-11T23:23:49.900Z,54.15
2023-04-11T23:26:35.791Z,54.15
2023-04-11T23:29:21.663Z,53.54
2023-04-11T23:32:07.482Z,52.94
2023-04-11T23:34:53.488Z,52.83
2023-04-11T23:37:41.380Z,52.87
2023-04-11T23:40:27.159Z,53.28
2023-04-11T23:43:13.125Z,53.35
2023-04-11T23:45:59.187Z,54.02
2023-04-11T23:48:45.069Z,54.75
2023-04-11T23:51:31.075Z,54.34
2023-04-11T23:54:16.771Z,54.27
2023-04-11T23:57:02.563Z,54.35
2023-04-11T23:59:48.444Z,53.55
